sensor_id;sensor_type;location;lat;lon;timestamp;temperature;humidity
43920;DHT22;29578;51.946;5.874;2023-11-21T00:07:10;7.80;93.20
43920;DHT22;29578;51.946;5.874;2023-11-21T00:09:35;7.80;93.20
43920;DHT22;29578;51.946;5.874;2023-11-21T00:12:02;7.80;93.20
43920;DHT22;29578;51.946;5.874;2023-11-21T00:14:28;7.80;93.30
43920;DHT22;29578;51.946;5.874;2023-11-21T00:16:54;7.80;93.30
43920;DHT22;29578;51.946;5.874;2023-11-21T00:19:20;7.80;93.30
43920;DHT22;29578;51.946;5.874;2023-11-21T00:21:45;7.80;93.30
43920;DHT22;29578;51.946;5.874;2023-11-21T00:24:12;7.80;93.30
43920;DHT22;29578;51.946;5.874;2023-11-21T00:26:40;7.80;93.30
43920;DHT22;29578;51.946;5.874;2023-11-21T00:29:05;7.80;93.30
43920;DHT22;29578;51.946;5.874;2023-11-21T00:31:35;7.80;93.30
43920;DHT22;29578;51.946;5.874;2023-11-21T00:34:03;7.80;93.30
43920;DHT22;29578;51.946;5.874;2023-11-21T00:36:31;7.70;93.30
43920;DHT22;29578;51.946;5.874;2023-11-21T00:38:58;7.70;93.30
43920;DHT22;29578;51.946;5.874;2023-11-21T00:41:23;7.70;93.30
43920;DHT22;29578;51.946;5.874;2023-11-21T00:43:49;7.70;93.30
43920;DHT22;29578;51.946;5.874;2023-11-21T00:46:15;7.60;93.30
43920;DHT22;29578;51.946;5.874;2023-11-21T00:48:40;7.60;93.30
43920;DHT22;29578;51.946;5.874;2023-11-21T00:51:06;7.70;93.30
43920;DHT22;29578;51.946;5.874;2023-11-21T00:53:32;7.60;93.30
43920;DHT22;29578;51.946;5.874;2023-11-21T00:55:58;7.60;93.30
43920;DHT22;29578;51.946;5.874;2023-11-21T00:58:24;7.50;93.30
43920;DHT22;29578;51.946;5.874;2023-11-21T01:00:50;7.60;93.40
43920;DHT22;29578;51.946;5.874;2023-11-21T01:03:16;7.50;93.40
43920;DHT22;29578;51.946;5.874;2023-11-21T01:05:42;7.50;93.40
43920;DHT22;29578;51.946;5.874;2023-11-21T01:08:07;7.50;93.40
43920;DHT22;29578;51.946;5.874;2023-11-21T01:10:33;7.60;93.40
43920;DHT22;29578;51.946;5.874;2023-11-21T01:13:00;7.60;93.40
43920;DHT22;29578;51.946;5.874;2023-11-21T01:15:25;7.60;93.40
43920;DHT22;29578;51.946;5.874;2023-11-21T01:17:51;7.60;93.30
43920;DHT22;29578;51.946;5.874;2023-11-21T01:20:18;7.60;93.30
43920;DHT22;29578;51.946;5.874;2023-11-21T01:22:43;7.70;93.30
43920;DHT22;29578;51.946;5.874;2023-11-21T01:25:10;7.60;93.30
43920;DHT22;29578;51.946;5.874;2023-11-21T01:27:36;7.70;93.30
43920;DHT22;29578;51.946;5.874;2023-11-21T01:30:03;7.70;93.30
43920;DHT22;29578;51.946;5.874;2023-11-21T01:32:29;7.70;93.30
43920;DHT22;29578;51.946;5.874;2023-11-21T01:34:55;7.70;93.30
43920;DHT22;29578;51.946;5.874;2023-11-21T01:37:21;7.70;93.20
43920;DHT22;29578;51.946;5.874;2023-11-21T01:39:48;7.80;93.30
43920;DHT22;29578;51.946;5.874;2023-11-21T01:42:13;7.80;93.20
43920;DHT22;29578;51.946;5.874;2023-11-21T01:44:39;7.80;93.20
43920;DHT22;29578;51.946;5.874;2023-11-21T01:47:06;7.80;93.20
43920;DHT22;29578;51.946;5.874;2023-11-21T01:49:33;7.90;93.20
43920;DHT22;29578;51.946;5.874;2023-11-21T01:51:59;7.90;93.20
43920;DHT22;29578;51.946;5.874;2023-11-21T01:54:26;7.90;93.10
43920;DHT22;29578;51.946;5.874;2023-11-21T01:56:52;7.90;93.10
43920;DHT22;29578;51.946;5.874;2023-11-21T01:59:20;8.00;93.10
43920;DHT22;29578;51.946;5.874;2023-11-21T02:01:48;8.00;93.10
43920;DHT22;29578;51.946;5.874;2023-11-21T02:04:16;8.00;93.10
43920;DHT22;29578;51.946;5.874;2023-11-21T02:06:41;8.00;93.10
43920;DHT22;29578;51.946;5.874;2023-11-21T02:09:07;8.10;93.10
43920;DHT22;29578;51.946;5.874;2023-11-21T02:11:34;8.00;93.10
43920;DHT22;29578;51.946;5.874;2023-11-21T02:14:00;8.00;93.10
43920;DHT22;29578;51.946;5.874;2023-11-21T02:16:26;8.10;93.10
43920;DHT22;29578;51.946;5.874;2023-11-21T02:18:53;8.10;93.10
43920;DHT22;29578;51.946;5.874;2023-11-21T02:21:18;8.10;93.10
43920;DHT22;29578;51.946;5.874;2023-11-21T02:23:45;8.10;93.10
43920;DHT22;29578;51.946;5.874;2023-11-21T02:26:12;8.10;93.10
43920;DHT22;29578;51.946;5.874;2023-11-21T02:28:39;8.10;93.10
43920;DHT22;29578;51.946;5.874;2023-11-21T02:31:05;8.10;93.10
43920;DHT22;29578;51.946;5.874;2023-11-21T02:33:33;8.10;93.10
43920;DHT22;29578;51.946;5.874;2023-11-21T02:36:00;8.10;93.10
43920;DHT22;29578;51.946;5.874;2023-11-21T02:38:26;8.10;93.10
43920;DHT22;29578;51.946;5.874;2023-11-21T02:40:52;8.10;93.20
43920;DHT22;29578;51.946;5.874;2023-11-21T02:43:17;8.20;93.20
43920;DHT22;29578;51.946;5.874;2023-11-21T02:45:43;8.10;93.20
43920;DHT22;29578;51.946;5.874;2023-11-21T02:48:09;8.20;93.20
43920;DHT22;29578;51.946;5.874;2023-11-21T02:50:34;8.20;93.20
43920;DHT22;29578;51.946;5.874;2023-11-21T02:53:01;8.20;93.20
43920;DHT22;29578;51.946;5.874;2023-11-21T02:55:27;8.20;93.20
43920;DHT22;29578;51.946;5.874;2023-11-21T02:57:54;8.20;93.20
43920;DHT22;29578;51.946;5.874;2023-11-21T03:00:22;8.20;93.20
43920;DHT22;29578;51.946;5.874;2023-11-21T03:02:49;8.30;93.20
43920;DHT22;29578;51.946;5.874;2023-11-21T03:05:15;8.20;93.20
43920;DHT22;29578;51.946;5.874;2023-11-21T03:07:41;8.20;93.20
43920;DHT22;29578;51.946;5.874;2023-11-21T03:10:08;8.20;93.20
43920;DHT22;29578;51.946;5.874;2023-11-21T03:12:37;8.30;93.20
43920;DHT22;29578;51.946;5.874;2023-11-21T03:15:05;8.20;93.20
43920;DHT22;29578;51.946;5.874;2023-11-21T03:17:34;8.20;93.20
43920;DHT22;29578;51.946;5.874;2023-11-21T03:20:00;8.30;93.20
43920;DHT22;29578;51.946;5.874;2023-11-21T03:22:26;8.20;93.20
43920;DHT22;29578;51.946;5.874;2023-11-21T03:24:52;8.20;93.20
43920;DHT22;29578;51.946;5.874;2023-11-21T03:27:19;8.20;93.20
43920;DHT22;29578;51.946;5.874;2023-11-21T03:29:44;8.20;93.20
43920;DHT22;29578;51.946;5.874;2023-11-21T03:32:12;8.20;93.30
43920;DHT22;29578;51.946;5.874;2023-11-21T03:34:54;8.30;93.30
43920;DHT22;29578;51.946;5.874;2023-11-21T03:37:23;8.20;93.30
43920;DHT22;29578;51.946;5.874;2023-11-21T03:39:50;8.10;93.20
43920;DHT22;29578;51.946;5.874;2023-11-21T03:42:16;8.20;93.30
43920;DHT22;29578;51.946;5.874;2023-11-21T03:44:42;8.20;93.30
43920;DHT22;29578;51.946;5.874;2023-11-21T03:47:08;8.10;93.30
43920;DHT22;29578;51.946;5.874;2023-11-21T03:49:33;8.10;93.30
43920;DHT22;29578;51.946;5.874;2023-11-21T03:51:59;8.10;93.30
43920;DHT22;29578;51.946;5.874;2023-11-21T03:54:25;8.10;93.40
43920;DHT22;29578;51.946;5.874;2023-11-21T03:56:51;8.20;93.40
43920;DHT22;29578;51.946;5.874;2023-11-21T03:59:17;8.10;93.30
43920;DHT22;29578;51.946;5.874;2023-11-21T04:01:43;8.10;93.40
43920;DHT22;29578;51.946;5.874;2023-11-21T04:04:08;8.10;93.40
43920;DHT22;29578;51.946;5.874;2023-11-21T04:06:34;8.10;93.40
43920;DHT22;29578;51.946;5.874;2023-11-21T04:09:01;8.10;93.40
43920;DHT22;29578;51.946;5.874;2023-11-21T04:11:30;8.10;93.40
43920;DHT22;29578;51.946;5.874;2023-11-21T04:13:56;8.00;93.40
43920;DHT22;29578;51.946;5.874;2023-11-21T04:16:22;8.10;93.50
43920;DHT22;29578;51.946;5.874;2023-11-21T04:18:48;8.00;93.40
43920;DHT22;29578;51.946;5.874;2023-11-21T04:21:13;8.00;93.50
43920;DHT22;29578;51.946;5.874;2023-11-21T04:23:39;8.10;93.50
43920;DHT22;29578;51.946;5.874;2023-11-21T04:26:05;8.00;93.50
43920;DHT22;29578;51.946;5.874;2023-11-21T04:28:32;8.00;93.50
43920;DHT22;29578;51.946;5.874;2023-11-21T04:30:57;8.10;93.50
43920;DHT22;29578;51.946;5.874;2023-11-21T04:33:23;8.00;93.50
43920;DHT22;29578;51.946;5.874;2023-11-21T04:35:49;8.00;93.50
43920;DHT22;29578;51.946;5.874;2023-11-21T04:38:15;8.00;93.50
43920;DHT22;29578;51.946;5.874;2023-11-21T04:40:40;8.00;93.50
43920;DHT22;29578;51.946;5.874;2023-11-21T04:43:06;8.00;93.50
43920;DHT22;29578;51.946;5.874;2023-11-21T04:45:32;8.00;93.50
43920;DHT22;29578;51.946;5.874;2023-11-21T04:47:57;8.10;93.50
43920;DHT22;29578;51.946;5.874;2023-11-21T04:50:23;8.00;93.50
43920;DHT22;29578;51.946;5.874;2023-11-21T04:52:51;8.10;93.50
43920;DHT22;29578;51.946;5.874;2023-11-21T04:55:16;8.00;93.50
43920;DHT22;29578;51.946;5.874;2023-11-21T04:57:42;8.00;93.50
43920;DHT22;29578;51.946;5.874;2023-11-21T05:00:09;8.10;93.50
43920;DHT22;29578;51.946;5.874;2023-11-21T05:02:35;8.10;93.50
43920;DHT22;29578;51.946;5.874;2023-11-21T05:05:01;8.10;93.50
43920;DHT22;29578;51.946;5.874;2023-11-21T05:07:27;8.10;93.50
43920;DHT22;29578;51.946;5.874;2023-11-21T05:09:55;8.10;93.50
43920;DHT22;29578;51.946;5.874;2023-11-21T05:12:22;8.10;93.50
43920;DHT22;29578;51.946;5.874;2023-11-21T05:14:49;8.20;93.50
43920;DHT22;29578;51.946;5.874;2023-11-21T05:17:15;8.10;93.50
43920;DHT22;29578;51.946;5.874;2023-11-21T05:19:40;8.10;93.50
43920;DHT22;29578;51.946;5.874;2023-11-21T05:22:06;8.20;93.50
43920;DHT22;29578;51.946;5.874;2023-11-21T05:24:34;8.20;93.50
43920;DHT22;29578;51.946;5.874;2023-11-21T05:27:00;8.20;93.50
43920;DHT22;29578;51.946;5.874;2023-11-21T05:29:26;8.20;93.50
43920;DHT22;29578;51.946;5.874;2023-11-21T05:31:52;8.20;93.50
43920;DHT22;29578;51.946;5.874;2023-11-21T05:34:18;8.20;93.50
43920;DHT22;29578;51.946;5.874;2023-11-21T05:36:46;8.20;93.50
43920;DHT22;29578;51.946;5.874;2023-11-21T05:39:12;8.20;93.50
43920;DHT22;29578;51.946;5.874;2023-11-21T05:41:37;8.20;93.50
43920;DHT22;29578;51.946;5.874;2023-11-21T05:44:03;8.10;93.50
43920;DHT22;29578;51.946;5.874;2023-11-21T05:46:29;8.20;93.50
43920;DHT22;29578;51.946;5.874;2023-11-21T05:48:55;8.20;93.50
43920;DHT22;29578;51.946;5.874;2023-11-21T05:51:20;8.20;93.50
43920;DHT22;29578;51.946;5.874;2023-11-21T05:53:46;8.20;93.50
43920;DHT22;29578;51.946;5.874;2023-11-21T05:56:12;8.20;93.50
43920;DHT22;29578;51.946;5.874;2023-11-21T05:58:39;8.30;93.50
43920;DHT22;29578;51.946;5.874;2023-11-21T06:01:06;8.40;93.50
43920;DHT22;29578;51.946;5.874;2023-11-21T06:03:34;8.30;93.50
43920;DHT22;29578;51.946;5.874;2023-11-21T06:06:00;8.40;93.50
43920;DHT22;29578;51.946;5.874;2023-11-21T06:08:26;8.40;93.50
43920;DHT22;29578;51.946;5.874;2023-11-21T06:25:33;8.40;93.40
43920;DHT22;29578;51.946;5.874;2023-11-21T06:28:01;8.40;93.40
43920;DHT22;29578;51.946;5.874;2023-11-21T06:30:27;8.40;93.40
43920;DHT22;29578;51.946;5.874;2023-11-21T06:32:54;8.40;93.40
43920;DHT22;29578;51.946;5.874;2023-11-21T06:35:21;8.40;93.40
43920;DHT22;29578;51.946;5.874;2023-11-21T06:37:47;8.40;93.40
43920;DHT22;29578;51.946;5.874;2023-11-21T06:40:14;8.50;93.40
43920;DHT22;29578;51.946;5.874;2023-11-21T06:42:40;8.50;93.40
43920;DHT22;29578;51.946;5.874;2023-11-21T06:45:07;8.50;93.40
43920;DHT22;29578;51.946;5.874;2023-11-21T06:47:33;8.50;93.40
43920;DHT22;29578;51.946;5.874;2023-11-21T06:49:59;8.40;93.40
43920;DHT22;29578;51.946;5.874;2023-11-21T06:52:25;8.40;93.40
43920;DHT22;29578;51.946;5.874;2023-11-21T06:54:51;8.50;93.40
43920;DHT22;29578;51.946;5.874;2023-11-21T06:57:17;8.50;93.40
43920;DHT22;29578;51.946;5.874;2023-11-21T06:59:43;8.50;93.50
43920;DHT22;29578;51.946;5.874;2023-11-21T07:02:09;8.50;93.50
43920;DHT22;29578;51.946;5.874;2023-11-21T07:04:35;8.50;93.50
43920;DHT22;29578;51.946;5.874;2023-11-21T07:07:02;8.50;93.50
43920;DHT22;29578;51.946;5.874;2023-11-21T07:09:28;8.50;93.50
43920;DHT22;29578;51.946;5.874;2023-11-21T07:11:54;8.60;93.50
43920;DHT22;29578;51.946;5.874;2023-11-21T07:14:20;8.60;93.50
43920;DHT22;29578;51.946;5.874;2023-11-21T07:16:46;8.60;93.50
43920;DHT22;29578;51.946;5.874;2023-11-21T07:19:13;8.60;93.50
43920;DHT22;29578;51.946;5.874;2023-11-21T07:21:39;8.60;93.50
43920;DHT22;29578;51.946;5.874;2023-11-21T07:24:06;8.60;93.50
43920;DHT22;29578;51.946;5.874;2023-11-21T07:26:33;8.60;93.50
43920;DHT22;29578;51.946;5.874;2023-11-21T07:28:59;8.70;93.50
43920;DHT22;29578;51.946;5.874;2023-11-21T07:31:25;8.70;93.50
43920;DHT22;29578;51.946;5.874;2023-11-21T07:33:52;8.70;93.50
43920;DHT22;29578;51.946;5.874;2023-11-21T07:36:18;8.70;93.50
43920;DHT22;29578;51.946;5.874;2023-11-21T07:38:44;8.70;93.50
43920;DHT22;29578;51.946;5.874;2023-11-21T07:41:10;8.70;93.50
43920;DHT22;29578;51.946;5.874;2023-11-21T07:43:37;8.70;93.50
43920;DHT22;29578;51.946;5.874;2023-11-21T07:46:03;8.70;93.50
43920;DHT22;29578;51.946;5.874;2023-11-21T07:48:31;8.80;93.50
43920;DHT22;29578;51.946;5.874;2023-11-21T07:50:57;8.80;93.50
43920;DHT22;29578;51.946;5.874;2023-11-21T07:53:25;8.80;93.50
43920;DHT22;29578;51.946;5.874;2023-11-21T07:55:51;8.80;93.50
43920;DHT22;29578;51.946;5.874;2023-11-21T07:58:18;8.80;93.50
43920;DHT22;29578;51.946;5.874;2023-11-21T08:00:44;8.90;93.50
43920;DHT22;29578;51.946;5.874;2023-11-21T08:03:09;8.90;93.50
43920;DHT22;29578;51.946;5.874;2023-11-21T08:05:37;8.90;93.50
43920;DHT22;29578;51.946;5.874;2023-11-21T08:08:02;8.90;93.60
43920;DHT22;29578;51.946;5.874;2023-11-21T08:10:28;8.90;93.50
43920;DHT22;29578;51.946;5.874;2023-11-21T08:12:54;8.90;93.50
43920;DHT22;29578;51.946;5.874;2023-11-21T08:15:20;9.00;93.40
43920;DHT22;29578;51.946;5.874;2023-11-21T08:17:47;9.00;93.70
43920;DHT22;29578;51.946;5.874;2023-11-21T08:20:12;9.10;93.40
43920;DHT22;29578;51.946;5.874;2023-11-21T08:22:42;9.00;93.40
43920;DHT22;29578;51.946;5.874;2023-11-21T08:25:08;9.10;93.40
43920;DHT22;29578;51.946;5.874;2023-11-21T08:27:34;9.10;93.40
43920;DHT22;29578;51.946;5.874;2023-11-21T08:30:01;9.00;93.40
43920;DHT22;29578;51.946;5.874;2023-11-21T08:32:26;9.10;93.40
43920;DHT22;29578;51.946;5.874;2023-11-21T08:34:52;9.20;93.40
43920;DHT22;29578;51.946;5.874;2023-11-21T08:37:18;9.10;93.40
43920;DHT22;29578;51.946;5.874;2023-11-21T08:39:44;9.20;93.40
43920;DHT22;29578;51.946;5.874;2023-11-21T08:42:10;9.20;93.40
43920;DHT22;29578;51.946;5.874;2023-11-21T08:44:36;9.20;93.40
43920;DHT22;29578;51.946;5.874;2023-11-21T08:47:01;9.20;93.40
43920;DHT22;29578;51.946;5.874;2023-11-21T08:49:27;9.30;93.40
43920;DHT22;29578;51.946;5.874;2023-11-21T08:51:54;9.20;93.40
43920;DHT22;29578;51.946;5.874;2023-11-21T08:54:23;9.30;93.40
43920;DHT22;29578;51.946;5.874;2023-11-21T08:56:48;9.30;93.40
43920;DHT22;29578;51.946;5.874;2023-11-21T08:59:15;9.40;93.40
43920;DHT22;29578;51.946;5.874;2023-11-21T09:01:41;9.40;93.40
43920;DHT22;29578;51.946;5.874;2023-11-21T09:04:07;9.40;93.40
43920;DHT22;29578;51.946;5.874;2023-11-21T09:06:33;9.50;93.40
43920;DHT22;29578;51.946;5.874;2023-11-21T09:08:59;9.50;93.40
43920;DHT22;29578;51.946;5.874;2023-11-21T09:11:25;9.50;93.30
43920;DHT22;29578;51.946;5.874;2023-11-21T09:13:52;9.50;93.40
43920;DHT22;29578;51.946;5.874;2023-11-21T09:16:18;9.40;93.40
43920;DHT22;29578;51.946;5.874;2023-11-21T09:18:45;9.50;93.50
43920;DHT22;29578;51.946;5.874;2023-11-21T09:21:10;9.50;93.50
43920;DHT22;29578;51.946;5.874;2023-11-21T09:23:36;9.50;93.40
43920;DHT22;29578;51.946;5.874;2023-11-21T09:26:02;9.50;93.40
43920;DHT22;29578;51.946;5.874;2023-11-21T09:28:28;9.60;93.40
43920;DHT22;29578;51.946;5.874;2023-11-21T09:30:53;9.60;93.40
43920;DHT22;29578;51.946;5.874;2023-11-21T09:33:19;9.60;93.40
43920;DHT22;29578;51.946;5.874;2023-11-21T09:35:46;9.60;93.70
43920;DHT22;29578;51.946;5.874;2023-11-21T09:38:12;9.60;93.50
43920;DHT22;29578;51.946;5.874;2023-11-21T09:40:38;9.60;93.50
43920;DHT22;29578;51.946;5.874;2023-11-21T09:43:07;9.60;93.50
43920;DHT22;29578;51.946;5.874;2023-11-21T09:45:38;9.60;93.50
43920;DHT22;29578;51.946;5.874;2023-11-21T09:48:05;9.60;93.50
43920;DHT22;29578;51.946;5.874;2023-11-21T09:50:32;9.60;93.50
43920;DHT22;29578;51.946;5.874;2023-11-21T09:53:18;9.70;93.50
43920;DHT22;29578;51.946;5.874;2023-11-21T09:55:47;9.80;93.50
43920;DHT22;29578;51.946;5.874;2023-11-21T09:58:14;9.80;93.40
43920;DHT22;29578;51.946;5.874;2023-11-21T10:00:41;9.80;93.40
43920;DHT22;29578;51.946;5.874;2023-11-21T10:03:08;9.80;93.40
43920;DHT22;29578;51.946;5.874;2023-11-21T10:05:35;9.80;93.40
43920;DHT22;29578;51.946;5.874;2023-11-21T10:08:01;9.90;93.40
43920;DHT22;29578;51.946;5.874;2023-11-21T10:10:27;9.90;93.40
43920;DHT22;29578;51.946;5.874;2023-11-21T10:12:56;10.00;93.40
43920;DHT22;29578;51.946;5.874;2023-11-21T10:15:23;10.00;93.40
43920;DHT22;29578;51.946;5.874;2023-11-21T10:17:52;10.10;93.40
43920;DHT22;29578;51.946;5.874;2023-11-21T10:20:19;10.10;93.30
43920;DHT22;29578;51.946;5.874;2023-11-21T10:22:45;10.20;93.30
43920;DHT22;29578;51.946;5.874;2023-11-21T10:25:12;10.30;93.30
43920;DHT22;29578;51.946;5.874;2023-11-21T10:27:41;10.30;93.30
43920;DHT22;29578;51.946;5.874;2023-11-21T10:30:07;10.40;93.20
43920;DHT22;29578;51.946;5.874;2023-11-21T10:32:39;10.50;93.20
43920;DHT22;29578;51.946;5.874;2023-11-21T10:35:06;10.50;93.20
43920;DHT22;29578;51.946;5.874;2023-11-21T10:37:36;10.50;93.10
43920;DHT22;29578;51.946;5.874;2023-11-21T10:40:07;10.50;93.10
43920;DHT22;29578;51.946;5.874;2023-11-21T10:42:38;10.60;93.20
43920;DHT22;29578;51.946;5.874;2023-11-21T10:45:05;10.60;93.10
43920;DHT22;29578;51.946;5.874;2023-11-21T10:47:41;10.70;93.10
43920;DHT22;29578;51.946;5.874;2023-11-21T10:50:07;10.70;93.10
43920;DHT22;29578;51.946;5.874;2023-11-21T10:52:37;10.80;93.10
43920;DHT22;29578;51.946;5.874;2023-11-21T10:55:17;10.70;93.10
43920;DHT22;29578;51.946;5.874;2023-11-21T10:57:46;10.80;93.10
43920;DHT22;29578;51.946;5.874;2023-11-21T11:00:14;10.80;93.10
43920;DHT22;29578;51.946;5.874;2023-11-21T11:02:41;10.70;93.10
43920;DHT22;29578;51.946;5.874;2023-11-21T11:05:08;10.80;93.20
43920;DHT22;29578;51.946;5.874;2023-11-21T11:07:41;10.80;93.20
43920;DHT22;29578;51.946;5.874;2023-11-21T11:10:08;10.70;93.20
43920;DHT22;29578;51.946;5.874;2023-11-21T11:12:40;10.80;93.20
43920;DHT22;29578;51.946;5.874;2023-11-21T11:15:07;10.70;93.20
43920;DHT22;29578;51.946;5.874;2023-11-21T11:17:37;10.70;93.20
43920;DHT22;29578;51.946;5.874;2023-11-21T11:20:05;10.70;93.30
43920;DHT22;29578;51.946;5.874;2023-11-21T11:22:59;10.70;93.30
43920;DHT22;29578;51.946;5.874;2023-11-21T11:25:53;10.70;93.30
43920;DHT22;29578;51.946;5.874;2023-11-21T11:28:38;10.70;93.30
43920;DHT22;29578;51.946;5.874;2023-11-21T11:34:26;10.60;93.30
43920;DHT22;29578;51.946;5.874;2023-11-21T11:37:06;10.60;93.30
43920;DHT22;29578;51.946;5.874;2023-11-21T11:39:42;10.60;93.30
43920;DHT22;29578;51.946;5.874;2023-11-21T11:42:12;10.40;93.40
43920;DHT22;29578;51.946;5.874;2023-11-21T11:44:48;10.50;93.40
43920;DHT22;29578;51.946;5.874;2023-11-21T11:47:28;10.50;93.50
43920;DHT22;29578;51.946;5.874;2023-11-21T11:50:06;10.50;93.50
43920;DHT22;29578;51.946;5.874;2023-11-21T11:52:42;10.50;93.40
43920;DHT22;29578;51.946;5.874;2023-11-21T11:55:10;10.60;93.40
43920;DHT22;29578;51.946;5.874;2023-11-21T11:57:37;10.50;93.40
43920;DHT22;29578;51.946;5.874;2023-11-21T12:00:15;10.50;93.40
43920;DHT22;29578;51.946;5.874;2023-11-21T12:02:44;10.50;93.40
43920;DHT22;29578;51.946;5.874;2023-11-21T12:05:11;10.50;93.40
43920;DHT22;29578;51.946;5.874;2023-11-21T12:07:54;10.60;93.40
43920;DHT22;29578;51.946;5.874;2023-11-21T12:10:22;10.60;93.40
43920;DHT22;29578;51.946;5.874;2023-11-21T12:12:52;10.60;93.40
43920;DHT22;29578;51.946;5.874;2023-11-21T12:15:19;10.60;93.40
43920;DHT22;29578;51.946;5.874;2023-11-21T12:17:46;10.60;93.30
43920;DHT22;29578;51.946;5.874;2023-11-21T12:20:13;10.60;93.40
43920;DHT22;29578;51.946;5.874;2023-11-21T12:22:43;10.70;93.40
43920;DHT22;29578;51.946;5.874;2023-11-21T12:25:08;10.70;93.50
43920;DHT22;29578;51.946;5.874;2023-11-21T12:27:34;10.60;93.30
43920;DHT22;29578;51.946;5.874;2023-11-21T12:30:00;10.70;93.30
43920;DHT22;29578;51.946;5.874;2023-11-21T12:32:26;10.70;93.30
43920;DHT22;29578;51.946;5.874;2023-11-21T12:34:52;10.70;93.30
43920;DHT22;29578;51.946;5.874;2023-11-21T12:37:18;10.70;93.30
43920;DHT22;29578;51.946;5.874;2023-11-21T12:39:43;10.70;93.30
43920;DHT22;29578;51.946;5.874;2023-11-21T12:42:09;10.70;93.30
43920;DHT22;29578;51.946;5.874;2023-11-21T12:44:36;10.70;93.30
43920;DHT22;29578;51.946;5.874;2023-11-21T12:47:03;10.60;93.40
43920;DHT22;29578;51.946;5.874;2023-11-21T12:49:29;10.70;93.30
43920;DHT22;29578;51.946;5.874;2023-11-21T12:51:54;10.70;93.40
43920;DHT22;29578;51.946;5.874;2023-11-21T12:54:20;10.70;93.40
43920;DHT22;29578;51.946;5.874;2023-11-21T12:56:46;10.70;93.30
43920;DHT22;29578;51.946;5.874;2023-11-21T12:59:13;10.70;93.30
43920;DHT22;29578;51.946;5.874;2023-11-21T13:01:42;10.70;93.30
43920;DHT22;29578;51.946;5.874;2023-11-21T13:04:08;10.70;93.30
43920;DHT22;29578;51.946;5.874;2023-11-21T13:06:36;10.70;93.40
43920;DHT22;29578;51.946;5.874;2023-11-21T13:09:07;10.60;93.30
43920;DHT22;29578;51.946;5.874;2023-11-21T13:11:37;10.60;93.30
43920;DHT22;29578;51.946;5.874;2023-11-21T13:14:03;10.60;93.40
43920;DHT22;29578;51.946;5.874;2023-11-21T13:16:29;10.60;93.40
43920;DHT22;29578;51.946;5.874;2023-11-21T13:18:55;10.60;93.40
43920;DHT22;29578;51.946;5.874;2023-11-21T13:21:21;10.60;93.40
43920;DHT22;29578;51.946;5.874;2023-11-21T13:23:47;10.60;93.30
43920;DHT22;29578;51.946;5.874;2023-11-21T13:26:16;10.60;93.40
43920;DHT22;29578;51.946;5.874;2023-11-21T13:28:42;10.60;93.40
43920;DHT22;29578;51.946;5.874;2023-11-21T13:31:11;10.60;93.40
43920;DHT22;29578;51.946;5.874;2023-11-21T13:33:56;10.50;93.40
43920;DHT22;29578;51.946;5.874;2023-11-21T13:36:29;10.50;93.40
43920;DHT22;29578;51.946;5.874;2023-11-21T13:38:58;10.60;93.40
43920;DHT22;29578;51.946;5.874;2023-11-21T13:41:24;10.60;93.40
43920;DHT22;29578;51.946;5.874;2023-11-21T13:43:56;10.50;93.40
43920;DHT22;29578;51.946;5.874;2023-11-21T13:46:41;10.50;93.40
43920;DHT22;29578;51.946;5.874;2023-11-21T13:49:07;10.60;93.40
43920;DHT22;29578;51.946;5.874;2023-11-21T13:51:36;10.60;93.40
43920;DHT22;29578;51.946;5.874;2023-11-21T13:54:07;10.60;93.30
43920;DHT22;29578;51.946;5.874;2023-11-21T13:56:36;10.60;93.30
43920;DHT22;29578;51.946;5.874;2023-11-21T13:59:02;10.60;93.30
43920;DHT22;29578;51.946;5.874;2023-11-21T14:01:42;10.70;93.30
43920;DHT22;29578;51.946;5.874;2023-11-21T14:04:24;10.70;93.30
43920;DHT22;29578;51.946;5.874;2023-11-21T14:07:04;10.60;93.20
43920;DHT22;29578;51.946;5.874;2023-11-21T14:09:46;10.70;93.30
43920;DHT22;29578;51.946;5.874;2023-11-21T14:12:12;10.60;93.20
43920;DHT22;29578;51.946;5.874;2023-11-21T14:14:38;10.70;93.20
43920;DHT22;29578;51.946;5.874;2023-11-21T14:17:05;10.50;93.20
43920;DHT22;29578;51.946;5.874;2023-11-21T14:19:32;10.50;93.20
43920;DHT22;29578;51.946;5.874;2023-11-21T14:22:00;10.50;93.30
43920;DHT22;29578;51.946;5.874;2023-11-21T14:24:26;10.50;93.30
43920;DHT22;29578;51.946;5.874;2023-11-21T14:26:51;10.30;93.30
43920;DHT22;29578;51.946;5.874;2023-11-21T14:29:18;10.30;93.40
43920;DHT22;29578;51.946;5.874;2023-11-21T14:31:46;10.10;93.40
43920;DHT22;29578;51.946;5.874;2023-11-21T14:34:12;10.20;93.50
43920;DHT22;29578;51.946;5.874;2023-11-21T14:36:39;10.10;93.50
43920;DHT22;29578;51.946;5.874;2023-11-21T14:39:05;10.20;93.50
43920;DHT22;29578;51.946;5.874;2023-11-21T14:41:35;10.10;93.50
43920;DHT22;29578;51.946;5.874;2023-11-21T14:44:01;10.10;93.50
43920;DHT22;29578;51.946;5.874;2023-11-21T14:46:29;10.00;93.50
43920;DHT22;29578;51.946;5.874;2023-11-21T14:48:55;10.00;93.50
43920;DHT22;29578;51.946;5.874;2023-11-21T14:51:28;10.10;93.50
43920;DHT22;29578;51.946;5.874;2023-11-21T14:53:58;10.00;93.50
43920;DHT22;29578;51.946;5.874;2023-11-21T14:56:32;10.00;93.50
43920;DHT22;29578;51.946;5.874;2023-11-21T14:59:00;10.00;93.50
43920;DHT22;29578;51.946;5.874;2023-11-21T15:01:32;10.00;93.50
43920;DHT22;29578;51.946;5.874;2023-11-21T15:04:18;9.90;93.40
43920;DHT22;29578;51.946;5.874;2023-11-21T15:06:58;9.90;93.50
43920;DHT22;29578;51.946;5.874;2023-11-21T15:09:24;9.90;93.40
43920;DHT22;29578;51.946;5.874;2023-11-21T15:12:05;9.90;93.40
43920;DHT22;29578;51.946;5.874;2023-11-21T15:14:52;9.80;93.40
43920;DHT22;29578;51.946;5.874;2023-11-21T15:17:20;9.80;93.40
43920;DHT22;29578;51.946;5.874;2023-11-21T15:19:56;9.80;93.40
43920;DHT22;29578;51.946;5.874;2023-11-21T15:22:22;9.80;93.40
43920;DHT22;29578;51.946;5.874;2023-11-21T15:24:48;9.70;93.40
43920;DHT22;29578;51.946;5.874;2023-11-21T15:27:15;9.70;93.50
43920;DHT22;29578;51.946;5.874;2023-11-21T15:29:41;9.60;93.50
43920;DHT22;29578;51.946;5.874;2023-11-21T15:32:08;9.60;93.50
43920;DHT22;29578;51.946;5.874;2023-11-21T15:34:35;9.60;93.50
43920;DHT22;29578;51.946;5.874;2023-11-21T15:37:01;9.50;93.50
43920;DHT22;29578;51.946;5.874;2023-11-21T15:39:28;9.40;93.50
43920;DHT22;29578;51.946;5.874;2023-11-21T15:41:57;9.40;93.50
43920;DHT22;29578;51.946;5.874;2023-11-21T15:44:24;9.30;93.50
43920;DHT22;29578;51.946;5.874;2023-11-21T15:46:51;9.30;93.50
43920;DHT22;29578;51.946;5.874;2023-11-21T15:49:17;9.20;93.50
43920;DHT22;29578;51.946;5.874;2023-11-21T15:51:47;9.20;93.50
43920;DHT22;29578;51.946;5.874;2023-11-21T15:54:19;9.10;93.50
43920;DHT22;29578;51.946;5.874;2023-11-21T15:56:47;9.10;93.50
43920;DHT22;29578;51.946;5.874;2023-11-21T15:59:12;9.10;93.50
43920;DHT22;29578;51.946;5.874;2023-11-21T16:01:39;9.00;93.50
43920;DHT22;29578;51.946;5.874;2023-11-21T16:04:11;9.00;93.50
43920;DHT22;29578;51.946;5.874;2023-11-21T16:06:39;9.00;93.50
43920;DHT22;29578;51.946;5.874;2023-11-21T16:09:06;8.90;93.50